createdAt,value
2017-04-04T00:00:05.808Z,931.4
2017-04-04T00:00:33.983Z,931.4
2017-04-04T00:01:02.209Z,931.41
2017-04-04T00:01:30.430Z,931.37
2017-04-04T00:01:58.611Z,931.39
2017-04-04T00:02:27.228Z,931.37
2017-04-04T00:02:55.170Z,931.41
2017-04-04T00:03:23.255Z,931.36
2017-04-04T00:03:51.531Z,931.47
2017-04-04T00:04:19.958Z,931.43
2017-04-04T00:04:48.399Z,931.4
2017-04-04T00:05:16.479Z,931.4
2017-04-04T00:05:44.863Z,931.41
2017-04-04T00:06:13.078Z,931.44
2017-04-04T00:06:41.371Z,931.47
2017-04-04T00:07:09.640Z,931.44
2017-04-04T00:07:37.784Z,931.44
2017-04-04T00:08:06.021Z,931.47
2017-04-04T00:08:34.319Z,931.45
2017-04-04T00:09:02.664Z,931.45
2017-04-04T00:09:30.936Z,931.44
2017-04-04T00:09:59.095Z,931.47
2017-04-04T00:10:27.341Z,931.5
2017-04-04T00:10:55.662Z,931.48
2017-04-04T00:11:24.072Z,931.55
2017-04-04T00:11:52.295Z,931.49
2017-04-04T00:12:20.647Z,931.54
2017-04-04T00:12:48.860Z,931.54
2017-04-04T00:13:17.199Z,931.61
2017-04-04T00:13:45.457Z,931.56
2017-04-04T00:14:13.542Z,931.65
2017-04-04T00:14:42.461Z,931.55
2017-04-04T00:15:10.659Z,931.58
2017-04-04T00:15:38.890Z,931.6
2017-04-04T00:16:07.230Z,931.61
2017-04-04T00:16:35.493Z,931.6
2017-04-04T00:17:03.720Z,931.58
2017-04-04T00:17:31.993Z,931.62
2017-04-04T00:18:00.286Z,931.63
2017-04-04T00:18:28.636Z,931.61
2017-04-04T00:18:56.742Z,931.65
2017-04-04T00:19:24.853Z,931.68
2017-04-04T00:19:53.090Z,931.63
2017-04-04T00:20:21.421Z,931.64
2017-04-04T00:20:49.681Z,931.64
2017-04-04T00:21:18.133Z,931.61
2017-04-04T00:21:46.389Z,931.61
2017-04-04T00:22:14.640Z,931.62
2017-04-04T00:22:43.078Z,931.62
2017-04-04T00:23:11.417Z,931.59
2017-04-04T00:23:39.598Z,931.64
2017-04-04T00:24:07.779Z,931.6
2017-04-04T00:24:36.068Z,931.64
2017-04-04T00:25:04.411Z,931.63
2017-04-04T00:25:32.616Z,931.65
2017-04-04T00:26:00.920Z,931.67
2017-04-04T00:26:29.227Z,931.65
2017-04-04T00:26:57.413Z,931.67
2017-04-04T00:27:25.558Z,931.64
2017-04-04T00:27:53.692Z,931.66
2017-04-04T00:28:21.762Z,931.7
2017-04-04T00:28:50.007Z,931.71
2017-04-04T00:29:18.205Z,931.7
2017-04-04T00:29:46.428Z,931.73
2017-04-04T00:30:14.552Z,931.73
2017-04-04T00:30:42.862Z,931.73
2017-04-04T00:31:11.040Z,931.73
2017-04-04T00:31:39.247Z,931.75
2017-04-04T00:32:07.532Z,931.76
2017-04-04T00:32:35.677Z,931.73
2017-04-04T00:33:04.104Z,931.76
2017-04-04T00:33:32.488Z,931.75
2017-04-04T00:34:00.665Z,931.76
2017-04-04T00:34:28.928Z,931.75
2017-04-04T00:34:57.144Z,931.76
2017-04-04T00:35:25.613Z,931.76
2017-04-04T00:35:54.033Z,931.78
2017-04-04T00:36:22.371Z,931.78
2017-04-04T00:36:50.770Z,931.76
2017-04-04T00:37:18.897Z,931.77
2017-04-04T00:37:47.211Z,931.77
2017-04-04T00:38:15.364Z,931.79
2017-04-04T00:38:43.736Z,931.8
2017-04-04T00:39:11.975Z,931.78
2017-04-04T00:39:40.221Z,931.79
2017-04-04T00:40:08.423Z,931.81
2017-04-04T00:40:36.729Z,931.85
2017-04-04T00:41:04.885Z,931.83
2017-04-04T00:41:33.119Z,931.86
2017-04-04T00:42:01.293Z,931.82
2017-04-04T00:42:29.695Z,931.83
2017-04-04T00:42:57.887Z,931.83
2017-04-04T00:43:26.233Z,931.84
2017-04-04T00:43:54.702Z,931.8
2017-04-04T00:44:23.155Z,931.79
2017-04-04T00:44:51.473Z,931.8
2017-04-04T00:45:20.223Z,931.81
2017-04-04T00:45:48.819Z,931.8
2017-04-04T00:46:17.089Z,931.8
2017-04-04T00:46:45.363Z,931.79
2017-04-04T00:47:13.499Z,931.77
2017-04-04T00:47:41.615Z,931.76
2017-04-04T00:48:09.747Z,931.79
2017-04-04T00:48:37.977Z,931.76
2017-04-04T00:49:06.281Z,931.78
2017-04-04T00:49:34.734Z,931.76
2017-04-04T00:50:03.121Z,931.83
2017-04-04T00:50:31.534Z,931.82
2017-04-04T00:50:59.805Z,931.79
2017-04-04T00:51:28.337Z,931.81
2017-04-04T00:51:56.638Z,931.81
2017-04-04T00:52:25.034Z,931.82
2017-04-04T00:52:53.249Z,931.82
2017-04-04T00:53:21.606Z,931.79
2017-04-04T00:53:49.951Z,931.81
2017-04-04T00:54:18.288Z,931.8
2017-04-04T00:54:46.448Z,931.81
2017-04-04T00:55:14.694Z,931.81
2017-04-04T00:55:42.997Z,931.78
2017-04-04T00:56:11.356Z,931.81
2017-04-04T00:56:39.637Z,931.83
2017-04-04T00:57:07.854Z,931.82
2017-04-04T00:57:36.285Z,931.76
2017-04-04T00:58:04.606Z,931.82
2017-04-04T00:58:32.867Z,931.8
2017-04-04T00:59:01.167Z,931.81
2017-04-04T00:59:29.393Z,931.79
2017-04-04T00:59:57.754Z,931.79
2017-04-04T01:00:25.999Z,931.84
2017-04-04T01:00:54.311Z,931.84
2017-04-04T01:01:22.973Z,931.82
2017-04-04T01:01:51.349Z,931.82
2017-04-04T01:02:20.201Z,931.78
2017-04-04T01:02:48.661Z,931.82
2017-04-04T01:03:16.958Z,931.82
2017-04-04T01:03:45.214Z,931.83
2017-04-04T01:04:13.567Z,931.83
2017-04-04T01:04:41.838Z,931.84
2017-04-04T01:05:10.216Z,931.81
2017-04-04T01:05:38.523Z,931.84
2017-04-04T01:06:06.797Z,931.85
2017-04-04T01:06:35.143Z,931.8
2017-04-04T01:07:03.619Z,931.84
2017-04-04T01:07:32.071Z,931.82
2017-04-04T01:08:00.287Z,931.84
2017-04-04T01:08:28.645Z,931.81
2017-04-04T01:08:57.112Z,931.81
2017-04-04T01:09:25.676Z,931.81
2017-04-04T01:09:53.936Z,931.83
2017-04-04T01:10:21.978Z,931.79
2017-04-04T01:10:50.362Z,931.79
2017-04-04T01:11:18.799Z,931.81
2017-04-04T01:11:47.103Z,931.8
2017-04-04T01:12:15.635Z,931.8
2017-04-04T01:12:43.954Z,931.84
2017-04-04T01:13:12.255Z,931.84
2017-04-04T01:13:40.678Z,931.76
2017-04-04T01:14:09.165Z,931.81
2017-04-04T01:14:37.606Z,931.77
2017-04-04T01:15:05.824Z,931.77
2017-04-04T01:15:34.023Z,931.79
2017-04-04T01:16:02.243Z,931.74
2017-04-04T01:16:30.425Z,931.77
2017-04-04T01:16:58.694Z,931.78
2017-04-04T01:17:26.900Z,931.79
2017-04-04T01:17:55.343Z,931.74
2017-04-04T01:18:23.468Z,931.75
2017-04-04T01:18:51.796Z,931.74
2017-04-04T01:19:19.872Z,931.75
2017-04-04T01:19:48.089Z,931.78
2017-04-04T01:20:16.292Z,931.77
2017-04-04T01:20:44.495Z,931.78
2017-04-04T01:21:12.494Z,931.78
2017-04-04T01:21:40.723Z,931.77
2017-04-04T01:22:08.896Z,931.79
2017-04-04T01:22:37.264Z,931.73
2017-04-04T01:23:05.763Z,931.77
2017-04-04T01:23:34.159Z,931.77
2017-04-04T01:24:02.514Z,931.75
2017-04-04T01:24:31.331Z,931.75
2017-04-04T01:24:59.446Z,931.77
2017-04-04T01:25:27.868Z,931.75
2017-04-04T01:25:56.294Z,931.77
2017-04-04T01:26:24.654Z,931.75
2017-04-04T01:26:52.964Z,931.73
2017-04-04T01:27:21.223Z,931.76
2017-04-04T01:27:49.795Z,931.74
2017-04-04T01:28:18.339Z,931.74
2017-04-04T01:28:46.727Z,931.76
2017-04-04T01:29:14.873Z,931.76
2017-04-04T01:29:43.314Z,931.75
2017-04-04T01:30:11.703Z,931.76
2017-04-04T01:30:39.737Z,931.74
2017-04-04T01:31:08.003Z,931.73
2017-04-04T01:31:36.128Z,931.75
2017-04-04T01:32:04.438Z,931.77
2017-04-04T01:32:32.699Z,931.76
2017-04-04T01:33:00.836Z,931.78
2017-04-04T01:33:29.267Z,931.75
2017-04-04T01:33:57.537Z,931.77
2017-04-04T01:34:26.164Z,931.76
2017-04-04T01:34:54.528Z,931.8
2017-04-04T01:35:22.872Z,931.75
2017-04-04T01:35:51.249Z,931.77
2017-04-04T01:36:19.506Z,931.76
2017-04-04T01:36:47.563Z,931.72
2017-04-04T01:37:15.948Z,931.73
2017-04-04T01:37:44.398Z,931.72
2017-04-04T01:38:12.729Z,931.75
2017-04-04T01:38:41.096Z,931.71
2017-04-04T01:39:09.426Z,931.73
2017-04-04T01:39:37.711Z,931.7
2017-04-04T01:40:05.885Z,931.7
2017-04-04T01:40:34.231Z,931.65
2017-04-04T01:41:02.606Z,931.7
2017-04-04T01:41:30.929Z,931.72
2017-04-04T01:41:59.343Z,931.69
2017-04-04T01:42:27.730Z,931.65
2017-04-04T01:42:56.243Z,931.73
2017-04-04T01:43:24.391Z,931.68
2017-04-04T01:43:52.732Z,931.67
2017-04-04T01:44:20.998Z,931.71
2017-04-04T01:44:49.188Z,931.66
2017-04-04T01:45:17.339Z,931.66
2017-04-04T01:45:45.532Z,931.63
2017-04-04T01:46:14.031Z,931.64
2017-04-04T01:46:42.272Z,931.66
2017-04-04T01:47:10.633Z,931.65
2017-04-04T01:47:39.062Z,931.64
2017-04-04T01:48:07.233Z,931.58
2017-04-04T01:48:35.566Z,931.6
2017-04-04T01:49:03.972Z,931.61
2017-04-04T01:49:32.176Z,931.61
2017-04-04T01:50:00.650Z,931.62
2017-04-04T01:50:29.069Z,931.59
2017-04-04T01:50:57.464Z,931.58
2017-04-04T01:51:25.712Z,931.57
2017-04-04T01:51:54.041Z,931.57
2017-04-04T01:52:22.428Z,931.6
2017-04-04T01:52:50.732Z,931.56
2017-04-04T01:53:19.082Z,931.65
2017-04-04T01:53:47.507Z,931.62
2017-04-04T01:54:15.868Z,931.56
2017-04-04T01:54:44.213Z,931.6
2017-04-04T01:55:12.583Z,931.62
2017-04-04T01:55:40.669Z,931.6
2017-04-04T01:56:08.992Z,931.58
2017-04-04T01:56:37.298Z,931.57
2017-04-04T01:57:05.760Z,931.56
2017-04-04T01:57:33.945Z,931.57
2017-04-04T01:58:02.547Z,931.54
2017-04-04T01:58:30.984Z,931.55
2017-04-04T01:58:59.217Z,931.59
2017-04-04T01:59:27.627Z,931.59
2017-04-04T01:59:56.028Z,931.56
2017-04-04T02:00:24.339Z,931.55
2017-04-04T02:00:52.625Z,931.61
2017-04-04T02:01:20.844Z,931.57
2017-04-04T02:01:48.894Z,931.57
2017-04-04T02:02:17.216Z,931.52
2017-04-04T02:02:45.488Z,931.56
2017-04-04T02:03:13.647Z,931.56
2017-04-04T02:03:42.146Z,931.52
2017-04-04T02:04:10.536Z,931.59
2017-04-04T02:04:38.868Z,931.56
2017-04-04T02:05:07.144Z,931.53
2017-04-04T02:05:35.330Z,931.53
2017-04-04T02:06:03.670Z,931.57
2017-04-04T02:06:31.963Z,931.56
2017-04-04T02:07:00.198Z,931.56
2017-04-04T02:07:28.300Z,931.58
2017-04-04T02:07:56.890Z,931.58
2017-04-04T02:08:25.216Z,931.56
2017-04-04T02:08:53.565Z,931.56
2017-04-04T02:09:21.806Z,931.54
2017-04-04T02:09:50.144Z,931.58
2017-04-04T02:10:18.310Z,931.57
2017-04-04T02:10:46.447Z,931.56
2017-04-04T02:11:14.737Z,931.53
2017-04-04T02:11:42.968Z,931.66
2017-04-04T02:12:11.088Z,931.54
2017-04-04T02:12:39.524Z,931.57
2017-04-04T02:13:07.913Z,931.53
2017-04-04T02:13:36.053Z,931.57
2017-04-04T02:14:04.395Z,931.53
2017-04-04T02:14:32.698Z,931.57
2017-04-04T02:15:01.024Z,931.55
2017-04-04T02:15:29.293Z,931.54
2017-04-04T02:15:57.390Z,931.55
2017-04-04T02:16:25.751Z,931.53
2017-04-04T02:16:54.363Z,931.51
2017-04-04T02:17:22.826Z,931.53
2017-04-04T02:17:51.145Z,931.54
2017-04-04T02:18:19.527Z,931.54
2017-04-04T02:18:47.815Z,931.52
2017-04-04T02:19:16.125Z,931.52
2017-04-04T02:19:44.388Z,931.52
2017-04-04T02:20:12.690Z,931.52
2017-04-04T02:20:41.187Z,931.53
2017-04-04T02:21:09.577Z,931.51
2017-04-04T02:21:37.775Z,931.49
2017-04-04T02:22:06.255Z,931.54
2017-04-04T02:22:34.555Z,931.57
2017-04-04T02:23:02.964Z,931.52
2017-04-04T02:23:31.120Z,931.53
2017-04-04T02:23:59.416Z,931.48
2017-04-04T02:24:27.807Z,931.53
2017-04-04T02:24:55.944Z,931.5
2017-04-04T02:25:24.007Z,931.51
2017-04-04T02:25:52.239Z,931.52
2017-04-04T02:26:20.589Z,931.51
2017-04-04T02:26:48.863Z,931.51
2017-04-04T02:27:17.119Z,931.5
2017-04-04T02:27:45.275Z,931.52
2017-04-04T02:28:13.396Z,931.52
2017-04-04T02:28:41.533Z,931.53
2017-04-04T02:29:09.567Z,931.56
2017-04-04T02:29:37.914Z,931.55
2017-04-04T02:30:06.152Z,931.53
2017-04-04T02:30:34.262Z,931.5
2017-04-04T02:31:02.522Z,931.54
2017-04-04T02:31:30.742Z,931.49
2017-04-04T02:31:59.011Z,931.54
2017-04-04T02:32:27.319Z,931.47
2017-04-04T02:32:55.368Z,931.47
2017-04-04T02:33:23.660Z,931.5
2017-04-04T02:33:51.752Z,931.5
2017-04-04T02:34:20.031Z,931.49
2017-04-04T02:34:48.265Z,931.46
2017-04-04T02:35:16.568Z,931.5
2017-04-04T02:35:44.546Z,931.48
2017-04-04T02:36:12.733Z,931.48
2017-04-04T02:36:41.006Z,931.45
2017-04-04T02:37:09.299Z,931.46
2017-04-04T02:37:37.332Z,931.48
2017-04-04T02:38:05.701Z,931.49
2017-04-04T02:38:34.045Z,931.5
2017-04-04T02:39:02.367Z,931.48
2017-04-04T02:39:30.638Z,931.44
2017-04-04T02:39:58.961Z,931.44
2017-04-04T02:40:27.180Z,931.43
2017-04-04T02:40:55.340Z,931.44
2017-04-04T02:41:23.431Z,931.43
2017-04-04T02:41:51.699Z,931.44
2017-04-04T02:42:19.775Z,931.41
2017-04-04T02:42:48.031Z,931.4
2017-04-04T02:43:16.187Z,931.39
2017-04-04T02:43:44.462Z,931.43
2017-04-04T02:44:12.815Z,931.4
2017-04-04T02:44:41.120Z,931.41
2017-04-04T02:45:09.357Z,931.4
2017-04-04T02:45:37.572Z,931.39
2017-04-04T02:46:05.909Z,931.41
2017-04-04T02:46:34.158Z,931.42
2017-04-04T02:47:02.449Z,931.41
2017-04-04T02:47:30.938Z,931.39
2017-04-04T02:47:59.170Z,931.41
2017-04-04T02:48:27.399Z,931.4
2017-04-04T02:48:55.630Z,931.42
2017-04-04T02:49:23.897Z,931.42
2017-04-04T02:49:52.039Z,931.42
2017-04-04T02:50:20.153Z,931.43
2017-04-04T02:50:48.375Z,931.41
2017-04-04T02:51:16.635Z,931.44
2017-04-04T02:51:45.200Z,931.43
2017-04-04T02:52:13.562Z,931.44
2017-04-04T02:52:41.827Z,931.44
2017-04-04T02:53:10.135Z,931.45
2017-04-04T02:53:38.281Z,931.41
2017-04-04T02:54:06.461Z,931.45
2017-04-04T02:54:34.671Z,931.44
2017-04-04T02:55:02.831Z,931.46
2017-04-04T02:55:31.104Z,931.46
2017-04-04T02:55:59.233Z,931.44
2017-04-04T02:56:27.447Z,931.45
2017-04-04T02:56:55.673Z,931.47
2017-04-04T02:57:23.844Z,931.45
2017-04-04T02:57:52.105Z,931.48
2017-04-04T02:58:20.412Z,931.46
2017-04-04T02:58:48.671Z,931.48
2017-04-04T02:59:16.788Z,931.45
2017-04-04T02:59:45.005Z,931.47
2017-04-04T03:00:13.356Z,931.44
2017-04-04T03:00:41.651Z,931.48
2017-04-04T03:01:09.899Z,931.4
2017-04-04T03:01:38.064Z,931.4
2017-04-04T03:02:06.201Z,931.45
2017-04-04T03:02:34.413Z,931.39
2017-04-04T03:03:02.660Z,931.39
2017-04-04T03:03:31.103Z,931.4
2017-04-04T03:03:59.265Z,931.38
2017-04-04T03:04:27.418Z,931.37
2017-04-04T03:04:55.589Z,931.39
2017-04-04T03:05:23.751Z,931.38
2017-04-04T03:05:51.878Z,931.36
2017-04-04T03:06:20.142Z,931.41
2017-04-04T03:06:49.065Z,931.35
2017-04-04T03:07:17.248Z,931.4
2017-04-04T03:07:45.563Z,931.39
2017-04-04T03:08:13.829Z,931.38
2017-04-04T03:08:42.085Z,931.37
2017-04-04T03:09:10.243Z,931.38
2017-04-04T03:09:38.332Z,931.36
2017-04-04T03:10:06.591Z,931.37
2017-04-04T03:10:34.856Z,931.41
2017-04-04T03:11:03.121Z,931.38
2017-04-04T03:11:31.437Z,931.4
2017-04-04T03:11:59.549Z,931.4
2017-04-04T03:12:27.610Z,931.4
2017-04-04T03:12:55.777Z,931.4
2017-04-04T03:13:23.895Z,931.38
2017-04-04T03:13:52.138Z,931.38
2017-04-04T03:14:20.353Z,931.4
2017-04-04T03:14:48.980Z,931.42
2017-04-04T03:15:17.131Z,931.4
2017-04-04T03:15:45.343Z,931.41
2017-04-04T03:16:13.560Z,931.4
2017-04-04T03:16:41.883Z,931.39
2017-04-04T03:17:10.039Z,931.4
2017-04-04T03:17:38.205Z,931.39
2017-04-04T03:18:06.488Z,931.39
2017-04-04T03:18:34.761Z,931.37
2017-04-04T03:19:02.969Z,931.36
2017-04-04T03:19:31.340Z,931.35
2017-04-04T03:19:59.470Z,931.38
2017-04-04T03:20:27.706Z,931.35
2017-04-04T03:20:55.795Z,931.38
2017-04-04T03:21:23.967Z,931.31
2017-04-04T03:21:51.978Z,931.37
2017-04-04T03:22:20.218Z,931.34
2017-04-04T03:22:48.480Z,931.33
2017-04-04T03:23:16.762Z,931.35
2017-04-04T03:23:45.093Z,931.34
2017-04-04T03:24:13.169Z,931.33
2017-04-04T03:24:41.433Z,931.32
2017-04-04T03:25:09.722Z,931.3
2017-04-04T03:25:37.974Z,931.28
2017-04-04T03:26:06.250Z,931.28
2017-04-04T03:26:34.498Z,931.27
2017-04-04T03:27:02.610Z,931.27
2017-04-04T03:27:30.784Z,931.28
2017-04-04T03:27:59.150Z,931.3
2017-04-04T03:28:27.408Z,931.3
2017-04-04T03:28:55.658Z,931.3
2017-04-04T03:29:23.838Z,931.3
2017-04-04T03:29:52.131Z,931.26
2017-04-04T03:30:20.271Z,931.3
2017-04-04T03:30:48.432Z,931.27
2017-04-04T03:31:16.642Z,931.28
2017-04-04T03:31:44.871Z,931.24
2017-04-04T03:32:13.133Z,931.28
2017-04-04T03:32:41.347Z,931.27
2017-04-04T03:33:09.437Z,931.28
2017-04-04T03:33:37.623Z,931.29
2017-04-04T03:34:05.882Z,931.25
2017-04-04T03:34:34.253Z,931.25
2017-04-04T03:35:02.778Z,931.26
2017-04-04T03:35:31.024Z,931.28
2017-04-04T03:35:59.329Z,931.28
2017-04-04T03:36:27.618Z,931.28
2017-04-04T03:36:55.698Z,931.24
2017-04-04T03:37:23.744Z,931.28
2017-04-04T03:37:51.936Z,931.24
2017-04-04T03:38:20.222Z,931.24
2017-04-04T03:38:48.590Z,931.23
2017-04-04T03:39:16.821Z,931.21
2017-04-04T03:39:45.005Z,931.25
2017-04-04T03:40:13.234Z,931.2
2017-04-04T03:40:41.542Z,931.21
2017-04-04T03:41:09.915Z,931.24
2017-04-04T03:41:38.083Z,931.22
2017-04-04T03:42:06.145Z,931.25
2017-04-04T03:42:34.411Z,931.22
2017-04-04T03:43:02.707Z,931.2
2017-04-04T03:43:30.789Z,931.19
2017-04-04T03:43:58.974Z,931.2
2017-04-04T03:44:27.231Z,931.19
2017-04-04T03:44:55.175Z,931.18
2017-04-04T03:45:23.412Z,931.19
2017-04-04T03:45:51.657Z,931.19
2017-04-04T03:46:19.942Z,931.16
2017-04-04T03:46:48.177Z,931.19
2017-04-04T03:47:16.371Z,931.2
2017-04-04T03:47:44.629Z,931.19
2017-04-04T03:48:13.042Z,931.16
2017-04-04T03:48:41.305Z,931.17
2017-04-04T03:49:09.580Z,931.19
2017-04-04T03:49:37.710Z,931.2
2017-04-04T03:50:05.976Z,931.2
2017-04-04T03:50:34.072Z,931.16
2017-04-04T03:51:02.327Z,931.19
2017-04-04T03:51:30.598Z,931.14
2017-04-04T03:51:58.989Z,931.19
2017-04-04T03:52:27.268Z,931.15
2017-04-04T03:52:55.575Z,931.16
2017-04-04T03:53:23.817Z,931.16
2017-04-04T03:53:52.007Z,931.14
2017-04-04T03:54:20.302Z,931.14
2017-04-04T03:54:48.472Z,931.12
2017-04-04T03:55:16.641Z,931.13
2017-04-04T03:55:44.811Z,931.15
2017-04-04T03:56:12.954Z,931.14
2017-04-04T03:56:41.235Z,931.15
2017-04-04T03:57:09.373Z,931.17
2017-04-04T03:57:37.486Z,931.12
2017-04-04T03:58:05.813Z,931.14
2017-04-04T03:58:34.191Z,931.17
2017-04-04T03:59:02.599Z,931.18
2017-04-04T03:59:30.795Z,931.17
2017-04-04T03:59:58.992Z,931.14
2017-04-04T04:00:27.119Z,931.15
2017-04-04T04:00:55.497Z,931.15
2017-04-04T04:01:23.679Z,931.15
2017-04-04T04:01:51.831Z,931.16
2017-04-04T04:02:19.975Z,931.12
2017-04-04T04:02:48.182Z,931.15
2017-04-04T04:03:16.324Z,931.13
2017-04-04T04:03:44.617Z,931.15
2017-04-04T04:04:12.771Z,931.06
2017-04-04T04:04:41.069Z,931.1
2017-04-04T04:05:09.289Z,931.08
2017-04-04T04:05:37.443Z,931.05
2017-04-04T04:06:05.678Z,931.07
2017-04-04T04:06:34.036Z,931.04
2017-04-04T04:07:02.356Z,931.06
2017-04-04T04:07:30.617Z,931.05
2017-04-04T04:07:58.618Z,931.06
2017-04-04T04:08:26.816Z,931.02
2017-04-04T04:08:55.073Z,931.02
2017-04-04T04:09:23.264Z,931.03
2017-04-04T04:09:51.420Z,931.02
2017-04-04T04:10:19.627Z,930.99
2017-04-04T04:10:47.852Z,930.98
2017-04-04T04:11:15.992Z,930.99
2017-04-04T04:11:44.252Z,930.96
2017-04-04T04:12:12.428Z,930.95
2017-04-04T04:12:40.793Z,930.98
2017-04-04T04:13:08.982Z,930.96
2017-04-04T04:13:37.166Z,930.94
2017-04-04T04:14:05.628Z,930.95
2017-04-04T04:14:33.878Z,930.92
2017-04-04T04:15:02.126Z,930.92
2017-04-04T04:15:30.371Z,930.96
2017-04-04T04:15:58.484Z,930.98
2017-04-04T04:16:26.694Z,930.95
2017-04-04T04:16:54.951Z,930.94
2017-04-04T04:17:23.093Z,930.94
2017-04-04T04:17:51.327Z,930.92
2017-04-04T04:18:19.477Z,930.9
2017-04-04T04:18:47.674Z,930.92
2017-04-04T04:19:15.976Z,930.93
2017-04-04T04:19:44.030Z,930.9
2017-04-04T04:20:12.204Z,930.9
2017-04-04T04:20:40.480Z,930.91
2017-04-04T04:21:08.845Z,930.88
2017-04-04T04:21:37.112Z,930.87
2017-04-04T04:22:05.380Z,930.88
2017-04-04T04:22:33.594Z,930.85
2017-04-04T04:23:01.885Z,930.88
2017-04-04T04:23:29.844Z,930.89
2017-04-04T04:23:58.275Z,930.81
2017-04-04T04:24:26.492Z,930.85
2017-04-04T04:24:54.693Z,930.81
2017-04-04T04:25:22.976Z,930.83
2017-04-04T04:25:51.231Z,930.84
2017-04-04T04:26:19.382Z,930.84
2017-04-04T04:26:47.636Z,930.83
2017-04-04T04:27:15.887Z,930.76
2017-04-04T04:27:44.126Z,930.76
2017-04-04T04:28:12.306Z,930.8
2017-04-04T04:28:40.407Z,930.74
2017-04-04T04:29:08.759Z,930.76
2017-04-04T04:29:36.960Z,930.77
2017-04-04T04:30:05.198Z,930.75
2017-04-04T04:30:33.401Z,930.76
2017-04-04T04:31:01.476Z,930.72
2017-04-04T04:31:29.626Z,930.75
2017-04-04T04:31:57.810Z,930.72
2017-04-04T04:32:25.969Z,930.7
2017-04-04T04:32:53.987Z,930.72
2017-04-04T04:33:22.273Z,930.69
2017-04-04T04:33:50.485Z,930.68
2017-04-04T04:34:18.852Z,930.66
2017-04-04T04:34:47.018Z,930.63
2017-04-04T04:35:15.249Z,930.62
2017-04-04T04:35:43.513Z,930.61
2017-04-04T04:36:11.598Z,930.56
2017-04-04T04:36:39.862Z,930.55
2017-04-04T04:37:08.014Z,930.52
2017-04-04T04:37:36.284Z,930.53
2017-04-04T04:38:04.485Z,930.51
2017-04-04T04:38:32.786Z,930.51
2017-04-04T04:39:01.051Z,930.5
2017-04-04T04:39:29.310Z,930.51
2017-04-04T04:39:57.590Z,930.5
2017-04-04T04:40:25.659Z,930.49
2017-04-04T04:40:53.815Z,930.48
2017-04-04T04:41:21.996Z,930.45
2017-04-04T04:41:50.218Z,930.44
2017-04-04T04:42:18.417Z,930.46
2017-04-04T04:42:46.553Z,930.46
2017-04-04T04:43:14.822Z,930.42
2017-04-04T04:43:43.072Z,930.43
2017-04-04T04:44:11.233Z,930.45
2017-04-04T04:44:39.442Z,930.5
2017-04-04T04:45:07.650Z,930.46
2017-04-04T04:45:35.951Z,930.43
2017-04-04T04:46:04.187Z,930.45
2017-04-04T04:46:32.391Z,930.46
2017-04-04T04:47:00.683Z,930.45
2017-04-04T04:47:28.839Z,930.46
2017-04-04T04:47:57.153Z,930.46
2017-04-04T04:48:25.512Z,930.47
2017-04-04T04:48:53.657Z,930.46
2017-04-04T04:49:21.841Z,930.49
2017-04-04T04:49:49.969Z,930.46
2017-04-04T04:50:17.967Z,930.43
2017-04-04T04:50:46.248Z,930.42
2017-04-04T04:51:14.289Z,930.42
2017-04-04T04:51:42.453Z,930.47
2017-04-04T04:52:10.731Z,930.46
2017-04-04T04:52:39.043Z,930.46
2017-04-04T04:53:07.177Z,930.49
2017-04-04T04:53:35.521Z,930.45
2017-04-04T04:54:03.564Z,930.43
2017-04-04T04:54:31.555Z,930.44
2017-04-04T04:54:59.686Z,930.42
2017-04-04T04:55:27.937Z,930.42
2017-04-04T04:55:56.015Z,930.46
2017-04-04T04:56:24.298Z,930.45
2017-04-04T04:56:52.389Z,930.47
2017-04-04T04:57:20.381Z,930.47
2017-04-04T04:57:48.590Z,930.46
2017-04-04T04:58:16.742Z,930.46
2017-04-04T04:58:45.035Z,930.47
2017-04-04T04:59:13.332Z,930.44
2017-04-04T04:59:41.450Z,930.47
2017-04-04T05:00:09.695Z,930.45
2017-04-04T05:00:37.893Z,930.45
2017-04-04T05:01:05.946Z,930.45
2017-04-04T05:01:34.231Z,930.47
2017-04-04T05:02:02.299Z,930.47
2017-04-04T05:02:30.279Z,930.47
2017-04-04T05:02:58.572Z,930.45
2017-04-04T05:03:26.867Z,930.48
2017-04-04T05:03:54.964Z,930.49
2017-04-04T05:04:23.271Z,930.48
2017-04-04T05:04:51.589Z,930.51
2017-04-04T05:05:19.752Z,930.47
2017-04-04T05:05:47.948Z,930.48
2017-04-04T05:06:16.151Z,930.51
2017-04-04T05:06:44.293Z,930.49
2017-04-04T05:07:12.377Z,930.51
2017-04-04T05:07:40.760Z,930.5
2017-04-04T05:08:08.966Z,930.5
2017-04-04T05:08:37.160Z,930.49
2017-04-04T05:09:05.169Z,930.45
2017-04-04T05:09:33.244Z,930.46
2017-04-04T05:10:01.589Z,930.47
2017-04-04T05:10:29.746Z,930.45
2017-04-04T05:10:57.876Z,930.45
2017-04-04T05:11:26.026Z,930.45
2017-04-04T05:11:54.252Z,930.42
2017-04-04T05:12:22.461Z,930.39
2017-04-04T05:12:50.708Z,930.4
2017-04-04T05:13:18.802Z,930.38
2017-04-04T05:13:47.023Z,930.39
2017-04-04T05:14:15.257Z,930.41
2017-04-04T05:14:43.458Z,930.4
2017-04-04T05:15:11.718Z,930.41
2017-04-04T05:15:39.859Z,930.38
2017-04-04T05:16:07.957Z,930.44
2017-04-04T05:16:36.194Z,930.45
2017-04-04T05:17:04.278Z,930.43
2017-04-04T05:17:32.574Z,930.43
2017-04-04T05:18:00.710Z,930.44
2017-04-04T05:18:28.960Z,930.41
2017-04-04T05:18:57.245Z,930.42
2017-04-04T05:19:25.447Z,930.43
2017-04-04T05:19:53.612Z,930.42
2017-04-04T05:20:21.690Z,930.43
2017-04-04T05:20:49.732Z,930.44
2017-04-04T05:21:18.052Z,930.45
2017-04-04T05:21:46.177Z,930.42
2017-04-04T05:22:14.215Z,930.4
2017-04-04T05:22:42.474Z,930.44
2017-04-04T05:23:10.790Z,930.44
2017-04-04T05:23:38.768Z,930.38
2017-04-04T05:24:06.932Z,930.42
2017-04-04T05:24:35.295Z,930.43
2017-04-04T05:25:03.478Z,930.43
2017-04-04T05:25:31.500Z,930.41
2017-04-04T05:25:59.456Z,930.41
2017-04-04T05:26:27.592Z,930.35
2017-04-04T05:26:55.773Z,930.38
2017-04-04T05:27:23.837Z,930.37
2017-04-04T05:27:51.986Z,930.36
2017-04-04T05:28:20.028Z,930.37
2017-04-04T05:28:48.173Z,930.37
2017-04-04T05:29:16.116Z,930.35
2017-04-04T05:29:44.438Z,930.36
2017-04-04T05:30:12.704Z,930.36
2017-04-04T05:30:40.939Z,930.36
2017-04-04T05:31:09.063Z,930.35
2017-04-04T05:31:37.293Z,930.38
2017-04-04T05:32:05.500Z,930.35
2017-04-04T05:32:33.752Z,930.33
2017-04-04T05:33:02.000Z,930.36
2017-04-04T05:33:30.143Z,930.36
2017-04-04T05:33:58.382Z,930.35
2017-04-04T05:34:26.520Z,930.35
2017-04-04T05:34:54.671Z,930.34
2017-04-04T05:35:22.827Z,930.3
2017-04-04T05:35:51.057Z,930.35
2017-04-04T05:36:19.236Z,930.34
2017-04-04T05:36:47.466Z,930.37
2017-04-04T05:37:15.570Z,930.34
2017-04-04T05:37:43.787Z,930.34
2017-04-04T05:38:11.940Z,930.32
2017-04-04T05:38:40.014Z,930.33
2017-04-04T05:39:08.230Z,930.3
2017-04-04T05:39:36.480Z,930.3
2017-04-04T05:40:04.729Z,930.3
2017-04-04T05:40:32.954Z,930.31
2017-04-04T05:41:01.112Z,930.33
2017-04-04T05:41:29.280Z,930.33
2017-04-04T05:41:57.341Z,930.3
2017-04-04T05:42:25.575Z,930.34
2017-04-04T05:42:53.686Z,930.33
2017-04-04T05:43:21.791Z,930.32
2017-04-04T05:43:49.995Z,930.28
2017-04-04T05:44:18.066Z,930.32
2017-04-04T05:44:46.306Z,930.28
2017-04-04T05:45:14.494Z,930.28
2017-04-04T05:45:42.708Z,930.29
2017-04-04T05:46:10.911Z,930.28
2017-04-04T05:46:39.119Z,930.29
2017-04-04T05:47:07.362Z,930.26
2017-04-04T05:47:35.513Z,930.27
2017-04-04T05:48:03.764Z,930.27
2017-04-04T05:48:31.786Z,930.26
2017-04-04T05:48:59.948Z,930.29
2017-04-04T05:49:28.104Z,930.26
2017-04-04T05:49:56.361Z,930.27
2017-04-04T05:50:24.411Z,930.27
2017-04-04T05:50:52.454Z,930.27
2017-04-04T05:51:20.682Z,930.27
2017-04-04T05:51:48.924Z,930.27
2017-04-04T05:52:17.048Z,930.26
2017-04-04T05:52:45.182Z,930.26
2017-04-04T05:53:13.357Z,930.26
2017-04-04T05:53:41.506Z,930.29